Time,TemperatureF,DewpointF,PressureIn,WindDirection,WindDirectionDegrees,WindSpeedMPH,WindSpeedGustMPH,Humidity,HourlyPrecipIn,Conditions,Clouds,dailyrainin,SoftwareType,DateUTC
2013-09-06 00:23:00,62.0,51.0,-100.00,North,0,3.0,9.0,68,-99.99,,,-99.99,,2013-09-06 04:23:00,
2013-09-06 00:54:00,60.0,51.0,-100.00,NE,55,3.0,5.0,72,-99.99,,,-99.99,,2013-09-06 04:54:00,
2013-09-06 01:23:00,59.0,52.0,-100.00,ESE,105,0.0,3.0,75,-99.99,,,-99.99,,2013-09-06 05:23:00,
2013-09-06 01:52:00,58.0,53.0,-100.00,SSE,155,0.0,2.0,83,-99.99,,,-99.99,,2013-09-06 05:52:00,
2013-09-06 02:22:00,57.0,53.0,-100.00,SSE,150,0.0,2.0,87,-99.99,,,-99.99,,2013-09-06 06:22:00,
2013-09-06 02:53:00,56.0,53.0,-100.00,SE,135,0.0,1.0,90,-99.99,,,-99.99,,2013-09-06 06:53:00,
2013-09-06 03:23:00,55.0,54.0,-100.00,SE,135,0.0,1.0,93,-99.99,,,-99.99,,2013-09-06 07:23:00,
2013-09-06 03:52:00,55.0,54.0,-100.00,ESE,110,0.0,0.0,96,-99.99,,,-99.99,,2013-09-06 07:52:00,
2013-09-06 04:22:00,54.0,54.0,-100.00,ESE,110,0.0,1.0,97,-99.99,,,-99.99,,2013-09-06 08:22:00,
2013-09-06 04:52:00,55.0,54.0,-100.00,ENE,75,1.0,3.0,97,-99.99,,,-99.99,,2013-09-06 08:52:00,
2013-09-06 05:22:00,56.0,50.0,-100.00,East,95,2.0,5.0,80,-99.99,,,-99.99,,2013-09-06 09:22:00,
2013-09-06 05:53:00,56.0,48.0,-100.00,ENE,75,4.0,7.0,75,-99.99,,,-99.99,,2013-09-06 09:53:00,
2013-09-06 06:23:00,56.0,48.0,-100.00,ENE,70,4.0,6.0,75,-99.99,,,-99.99,,2013-09-06 10:23:00,
2013-09-06 06:53:00,56.0,49.0,-100.00,ENE,75,2.0,6.0,77,-99.99,,,-99.99,,2013-09-06 10:53:00,
2013-09-06 07:22:00,56.0,49.0,-100.00,East,80,3.0,6.0,79,-99.99,,,-99.99,,2013-09-06 11:22:00,
2013-09-06 07:52:00,56.0,50.0,-100.00,East,90,3.0,7.0,80,-99.99,,,-99.99,,2013-09-06 11:52:00,
2013-09-06 10:42:00,68.0,48.0,-100.00,ENE,75,2.0,5.0,48,-99.99,,,-99.99,,2013-09-06 14:42:00,
2013-09-06 11:22:00,69.0,47.0,-100.00,SSW,210,2.0,4.0,45,-99.99,,,-99.99,,2013-09-06 15:22:00,
2013-09-06 11:34:00,69.0,47.0,-100.00,SSW,210,2.0,4.0,45,-99.99,,,-99.99,,2013-09-06 15:34:00,
2013-09-06 11:53:00,68.0,49.0,-100.00,WSW,245,2.0,6.0,49,-99.99,,,-99.99,,2013-09-06 15:53:00,
2013-09-06 12:24:00,70.0,49.0,-100.00,North,350,4.0,7.0,47,-99.99,,,-99.99,,2013-09-06 16:24:00,
2013-09-06 12:53:00,69.0,49.0,-100.00,West,270,3.0,8.0,47,-99.99,,,-99.99,,2013-09-06 16:53:00,
2013-09-06 13:24:00,69.0,49.0,-100.00,North,0,2.0,7.0,48,-99.99,,,-99.99,,2013-09-06 17:24:00,
2013-09-06 13:34:00,69.0,49.0,-100.00,North,0,2.0,7.0,48,-99.99,,,-99.99,,2013-09-06 17:34:00,
2013-09-06 13:53:00,69.0,50.0,-100.00,NNW,330,2.0,7.0,49,-99.99,,,-99.99,,2013-09-06 17:53:00,
2013-09-06 14:22:00,69.0,49.0,-100.00,NW,315,4.0,6.0,48,-99.99,,,-99.99,,2013-09-06 18:22:00,
2013-09-06 14:52:00,71.0,50.0,-100.00,NNW,335,3.0,8.0,47,-99.99,,,-99.99,,2013-09-06 18:52:00,
2013-09-06 15:22:00,71.0,49.0,-100.00,NW,325,4.0,9.0,45,-99.99,,,-99.99,,2013-09-06 19:22:00,
2013-09-06 15:52:00,71.0,50.0,-100.00,North,355,4.0,8.0,46,-99.99,,,-99.99,,2013-09-06 19:52:00,
2013-09-06 16:23:00,71.0,50.0,-100.00,North,5,4.0,9.0,48,-99.99,,,-99.99,,2013-09-06 20:23:00,
2013-09-06 16:52:00,72.0,52.0,-100.00,North,0,2.0,7.0,48,-99.99,,,-99.99,,2013-09-06 20:52:00,
2013-09-06 17:22:00,71.0,51.0,-100.00,North,0,3.0,9.0,49,-99.99,,,-99.99,,2013-09-06 21:22:00,
2013-09-06 17:54:00,71.0,52.0,-100.00,North,350,4.0,9.0,52,-99.99,,,-99.99,,2013-09-06 21:54:00,
2013-09-06 18:23:00,71.0,52.0,-100.00,NNW,330,3.0,7.0,52,-99.99,,,-99.99,,2013-09-06 22:23:00,
2013-09-06 18:33:00,71.0,52.0,-100.00,NNW,330,3.0,7.0,52,-99.99,,,-99.99,,2013-09-06 22:33:00,
2013-09-06 18:53:00,70.0,54.0,-100.00,North,5,2.0,7.0,55,-99.99,,,-99.99,,2013-09-06 22:53:00,
2013-09-06 19:23:00,69.0,53.0,-100.00,NNW,345,1.0,4.0,56,-99.99,,,-99.99,,2013-09-06 23:23:00,
2013-09-06 19:52:00,67.0,53.0,-100.00,North,0,1.0,5.0,60,-99.99,,,-99.99,,2013-09-06 23:52:00,
2013-09-06 20:22:00,66.0,53.0,-100.00,North,0,2.0,4.0,64,-99.99,,,-99.99,,2013-09-07 00:22:00,
2013-09-06 20:42:00,65.0,53.0,-100.00,North,0,1.0,4.0,65,-99.99,,,-99.99,,2013-09-07 00:42:00,
2013-09-06 20:52:00,65.0,53.0,-100.00,NNE,30,2.0,4.0,66,-99.99,,,-99.99,,2013-09-07 00:52:00,
2013-09-06 21:22:00,64.0,53.0,-100.00,NE,35,2.0,6.0,66,-99.99,,,-99.99,,2013-09-07 01:22:00,
2013-09-06 21:53:00,65.0,53.0,-100.00,East,90,1.0,5.0,65,-99.99,,,-99.99,,2013-09-07 01:53:00,
2013-09-06 22:23:00,65.0,54.0,-100.00,East,100,2.0,4.0,67,-99.99,,,-99.99,,2013-09-07 02:23:00,
2013-09-06 22:42:00,64.0,53.0,-100.00,East,85,2.0,4.0,68,-99.99,,,-99.99,,2013-09-07 02:42:00,
2013-09-06 22:52:00,64.0,53.0,-100.00,East,85,2.0,4.0,68,-99.99,,,-99.99,,2013-09-07 02:52:00,
2013-09-06 23:23:00,63.0,53.0,-100.00,ESE,110,1.0,4.0,69,-99.99,,,-99.99,,2013-09-07 03:23:00,
2013-09-06 23:55:00,62.0,53.0,-100.00,SE,145,1.0,2.0,72,-99.99,,,-99.99,,2013-09-07 03:55:00,